Independence, Ca., Owens Valley School Weather observations

 Day   Time    Ave.   Ave.  Ave.  Vector  Max.   Total    Solar  
  of    of     Air    Rel.  Wind   Wind   Wind  Precip.   Rad.   
Year   Day     Temp.  Hum.  Speed  Dir.   Gust                   
2015   (PST)    F      %     mph   deg.    mph    in.     W/m2  
----------------------------------------------------------------
 240    6:30   75.4    25    4.9   324     7.9    0.00     261
 240    6:40   76.2    25    4.0   321     6.3    0.00     294
 240    6:50   77.6    24    3.2   319     5.1    0.00     329
 240    7:00   79.4    23    3.6   320     5.7    0.00     360
 240    7:10   80.9    22    3.2   347     5.9    0.00     392
 240    7:20   81.8    22    3.6     7     6.2    0.00     423
 240    7:30   81.8    21    5.2   343     8.4    0.00     454
 240    7:40   82.5    21    3.8   359     6.6    0.00     484
 240    7:50   84.1    20    3.7    19     6.0    0.00     517
 240    8:00   84.5    20    3.6    17     5.5    0.00     530
 240    8:10   85.3    20    4.1     6     7.1    0.00     548
 240    8:20   86.7    19    3.1   348     7.6    0.00     599
 240    8:30   87.9    18    3.9    12     6.3    0.00     620
 240    8:40   89.3    16    3.3    18     6.2    0.00     644
 240    8:50   89.6    16    3.6    21     6.0    0.00     672
 240    9:00   90.2    16    3.4    23     6.1    0.00     672
 240    9:10   91.9    14    2.8    67     5.4    0.00     716
 240    9:20   92.4    14    3.3   101     5.4    0.00     721
 240    9:30   93.1    13    2.8    78     6.3    0.00     732
 240    9:40   93.7    14    2.3    21     5.9    0.00     759
 240    9:50   95.1    14    2.8   121     6.6    0.00     767
 240   10:00   95.5    13    2.8   277     5.9    0.00     792
 240   10:10   95.5    13    5.0   115    12.1    0.00     779
 240   10:20   95.9    13    5.7   138    13.1    0.00     823
 240   10:30   95.2    13    6.7   126    12.9    0.00     839
 240   10:40   95.7    13    7.5   141    15.6    0.00     812
 240   10:50   95.6    14    8.5   140    15.0    0.00     798
 240   11:00   95.9    13    8.7   148    17.6    0.00     831
 240   11:10   96.7    13    8.7   147    17.1    0.00     846
 240   11:20   96.2    13   12.2   150    20.4    0.00     822
 240   11:30   96.2    13   11.8   151    22.4    0.00     848
 240   11:40   96.5    13   12.0   148    21.7    0.00     825
 240   11:50   96.7    13   12.4   150    21.2    0.00     802
 240   12:00   97.2    12    8.8   133    19.0    0.00     796
 240   12:10   97.9    12   10.6   147    18.1    0.00     806
 240   12:20   98.6    12    9.2   143    19.6    0.00     807
 240   12:30   99.2    12    9.1   141    19.4    0.00     779
 240   12:40   98.7    12    9.1   132    19.0    0.00     700
 240   12:50   99.4    12    9.2   141    18.3    0.00     783
 240   13:00   98.7    12   11.0   145    21.8    0.00     548
 240   13:10   98.0    12   10.8   146    20.8    0.00     665
 240   13:20   98.3    12    9.8   132    17.8    0.00     635
 240   13:30   98.5    13   10.2   139    20.0    0.00     632
 240   13:40   98.2    13   11.1   135    22.0    0.00     567
 240   13:50   97.4    13   11.8   145    25.3    0.00     405
 240   14:00   96.9    13    9.7   138    18.1    0.00     391
 240   14:10   96.7    13   11.1   140    23.6    0.00     238
 240   14:20   96.9    13   11.6   142    22.6    0.00     491
 240   14:30   97.8    13   12.8   149    24.0    0.00     539
 240   14:40   98.1    13   12.2   146    22.3    0.00     524
 240   14:50   97.8    13   11.4   146    17.8    0.00     382
 240   15:00   96.8    13   10.7   144    21.1    0.00     284
 240   15:10   96.0    13   11.3   145    25.0    0.00     205
 240   15:20   97.0    13   11.3   145    19.3    0.00     304
 240   15:30   96.6    13   11.5   146    19.4    0.00     317
 240   15:40   97.2    13   11.5   150    20.8    0.00     345
 240   15:50   97.1    13   11.6   148    21.2    0.00     328
 240   16:00   96.2    14   13.3   148    22.2    0.00     217
 240   16:10   95.3    14   10.3   147    19.5    0.00      90
 240   16:20   94.7    14   12.3   151    22.5    0.00      71
 240   16:30   94.7    14   10.2   147    20.7    0.00      91
 240   16:40   95.0    14   12.8   146    20.3    0.00     162
 240   16:50   95.1    14   10.4   148    18.6    0.00     130
 240   17:00   94.5    14   10.1   150    17.0    0.00      84
 240   17:10   93.7    14    7.8   144    14.8    0.00      43
 240   17:20   93.0    15    9.9   148    16.9    0.00      30
 240   17:30   92.5    16    4.8   184    11.4    0.00      23
 240   17:40   92.0    16    4.7   321    11.7    0.00      18
 240   17:50   91.4    16    5.4   268    12.3    0.00      11
 240   18:00   91.0    16    6.8   252    13.4    0.00       4
 240   18:10   90.6    16    5.5   249    11.9    0.00       1
 240   18:20   90.1    17    6.0   249    12.2    0.00       0
 240   18:30   89.5    17    5.3   243    10.6    0.00       0
 240   18:40   89.4    17    7.3   250    16.0    0.00       0
 240   18:50   89.4    16    7.4   247    14.8    0.00       0
 240   19:00   89.1    17    4.4   231     9.6    0.00       0
 240   19:10   88.9    17    4.9   216    11.8    0.00       0
 240   19:20   88.9    17    3.9   215     7.3    0.00       0
 240   19:30   89.6    16    3.5   198     7.8    0.00       0
 240   19:40   88.7    17    4.6   168    10.1    0.00       0
 240   19:50   88.4    16    4.2   140     9.2    0.00       0
 240   20:00   87.4    17    2.2   169     3.5    0.00       0
 240   20:10   88.4    16    3.0   212    10.1    0.00       0
 240   20:20   88.3    16    2.6   125     4.9    0.00       0
 240   20:30   87.6    16    7.0   145    13.6    0.00       0
 240   20:40   88.3    15    4.8   176    10.3    0.00       0
 240   20:50   87.2    16    4.9   184    11.5    0.00       0
 240   21:00   87.0    16    4.7   161    11.9    0.00       0
 240   21:10   86.8    16    5.8   166    14.5    0.00       0
 240   21:20   86.0    17    4.3   177     9.3    0.00       0
 240   21:30   85.6    17    5.0   183    10.2    0.00       0
 240   21:40   85.3    17    3.7   173     6.6    0.00       0
 240   21:50   84.5    18    3.6   182     8.4    0.00       0
 240   22:00   84.3    18    5.0   189    10.7    0.00       0
 240   22:10   84.7    18    4.8   192     8.8    0.00       0
 240   22:20   84.2    18    4.4   179     8.8    0.00       0
 240   22:30   84.1    18    5.3   168    10.3    0.00       0
 240   22:40   84.1    17    5.5   181    11.7    0.00       0
 240   22:50   83.9    18    5.9   176    11.5    0.00       0
 240   23:00   83.7    18    5.8   178    12.2    0.00       0
 240   23:10   83.4    18    5.3   182    11.0    0.00       0
 240   23:20   83.0    19    4.4   181     9.0    0.00       0
 240   23:30   83.0    19    5.3   165    10.7    0.00       0
 240   23:40   83.0    19    4.8   173     9.8    0.00       0
 240   23:50   82.7    19    4.7   178    11.9    0.00       0
 241    0:00   82.4    19    5.6   174    10.8    0.00       0
 241    0:10   82.2    19    5.9   163    13.9    0.00       0
 241    0:20   82.9    19    6.7   161    12.7    0.00       0
 241    0:30   82.6    19    5.1   172     9.0    0.00       0
 241    0:40   82.4    19    6.1   164    12.8    0.00       0
 241    0:50   82.4    18    5.4   180    11.4    0.00       0
 241    1:00   82.6    18    4.9   190     9.3    0.00       0
 241    1:10   82.5    18    4.9   183    12.0    0.00       0
 241    1:20   82.5    17    5.6   177    11.8    0.00       0
 241    1:30   82.3    17    4.2   181     9.7    0.00       0
 241    1:40   80.8    18    5.0   193     9.7    0.00       0
 241    1:50   80.3    18    4.6   203    11.7    0.00       0
 241    2:00   80.3    18    4.1   202     8.7    0.00       0
 241    2:10   80.3    18    3.7   199     8.8    0.00       0
 241    2:20   80.0    18    3.1   195     8.6    0.00       0
 241    2:30   80.3    17    2.7   194     7.5    0.00       0
 241    2:40   80.0    17    2.0   196     5.4    0.00       0
 241    2:50   78.0    20    2.3   349     4.5    0.00       0
 241    3:00   77.8    20    2.2   354     5.5    0.00       0
 241    3:10   75.8    22    2.5   285     5.2    0.00       0
 241    3:20   76.0    22    2.4    38     6.3    0.00       0
 241    3:30   77.4    20    3.4    90     8.2    0.00       0
 241    3:40   77.8    20    1.9   314     4.3    0.00       0
 241    3:50   76.8    21    1.6    66     4.6    0.00       0
 241    4:00   75.5    23    2.6   324     5.4    0.00       0
 241    4:10   73.9    25    2.7   320     4.9    0.00       0
 241    4:20   73.7    24    2.3   296     4.6    0.00       0
 241    4:30   75.4    22    2.9   345     4.9    0.00       0
 241    4:40   73.6    24    3.5   326     5.4    0.00       1
 241    4:50   71.9    27    4.1   344     7.9    0.00       2
 241    5:00   70.1    29    4.3   330     9.4    0.00       5
 241    5:10   69.9    30    3.3   291     6.4    0.00      10
 241    5:20   70.2    28    2.5   285     5.2    0.00      12
 241    5:30   70.6    28    2.6   285     4.4    0.00      32
 241    5:40   72.1    27    2.8   289     5.9    0.00      59
 241    5:50   73.6    25    2.8   300     5.2    0.00     122
 241    6:00   75.8    24    3.2   354     6.4    0.00     190
 241    6:10   75.4    26    4.7   325     8.4    0.00     186
 241    6:20   76.2    25    3.5   325     7.3    0.00     221

Return to Independence, Ca. graphs page.


Western Regional Climate Center,wrcc@dri.edu